Time;durP1;ratioP1;P1;durP2;ratioP2;P2;SDS_P1;SDS_P2;PMS_P1;PMS_P2;Temp;Humidity;BMP_temperature;BMP_pressure;BME280_temperature;BME280_humidity;BME280_pressure;Samples;Min_cycle;Max_cycle;Signal;HPM_P1;HPM_P2
2023/05/28 00:00:10;;;;;;;10.25;7.97;;;;;;;;;;5054088;28;20546;-65
2023/05/28 00:02:37;;;;;;;9.82;8.05;;;;;;;;;;5054240;28;20394;-64
2023/05/28 00:05:04;;;;;;;9.15;7.82;;;;;;;;;;5054242;28;20040;-64
2023/05/28 00:07:30;;;;;;;10.32;8.38;;;;;;;;;;5054441;28;20402;-65
2023/05/28 00:09:57;;;;;;;10.65;9.10;;;;;;;;;;5054388;28;20562;-65
2023/05/28 00:12:24;;;;;;;12.25;8.73;;;;;;;;;;5054103;28;20071;-65
2023/05/28 00:14:51;;;;;;;9.85;8.48;;;;;;;;;;5054043;28;20558;-65
2023/05/28 00:17:17;;;;;;;9.32;8.35;;;;;;;;;;5053984;28;20049;-65
2023/05/28 00:19:44;;;;;;;11.80;8.77;;;;;;;;;;5054006;28;20052;-65
2023/05/28 00:22:11;;;;;;;10.18;9.07;;;;;;;;;;5054120;28;20044;-64
2023/05/28 00:24:37;;;;;;;10.23;8.82;;;;;;;;;;5053879;28;20103;-64
2023/05/28 00:27:04;;;;;;;11.30;8.95;;;;;;;;;;5054067;28;20092;-65
2023/05/28 00:29:30;;;;;;;11.02;9.07;;;;;;;;;;5053680;28;20041;-64
2023/05/28 00:31:56;;;;;;;11.35;9.60;;;;;;;;;;5054038;28;20080;-65
2023/05/28 00:34:23;;;;;;;15.75;9.95;;;;;;;;;;5052994;28;20041;-65
2023/05/28 00:36:50;;;;;;;14.63;10.40;;;;;;;;;;5053647;28;20122;-64
2023/05/28 00:39:17;;;;;;;15.25;10.93;;;;;;;;;;5053584;28;20053;-65
2023/05/28 00:41:44;;;;;;;13.30;10.05;;;;;;;;;;5053629;28;20052;-65
2023/05/28 00:44:10;;;;;;;13.00;9.97;;;;;;;;;;5053786;28;20080;-64
2023/05/28 00:46:39;;;;;;;13.45;10.90;;;;;;;;;;5053657;28;20045;-65
2023/05/28 00:49:06;;;;;;;16.20;11.20;;;;;;;;;;5053742;28;20127;-64
2023/05/28 00:51:35;;;;;;;12.73;9.60;;;;;;;;;;5053325;28;20442;-64
2023/05/28 00:54:02;;;;;;;12.18;9.30;;;;;;;;;;5053422;28;20282;-65
2023/05/28 00:56:28;;;;;;;13.80;10.15;;;;;;;;;;5053208;28;20049;-65
2023/05/28 00:58:55;;;;;;;15.20;10.10;;;;;;;;;;5053306;28;20060;-64
2023/05/28 01:01:24;;;;;;;12.60;9.57;;;;;;;;;;5053112;28;20053;-65
2023/05/28 01:03:52;;;;;;;14.50;9.90;;;;;;;;;;5046345;28;20052;-65
2023/05/28 01:06:20;;;;;;;;;;;;;;;;;;5046672;28;20049;-64
2023/05/28 01:08:48;;;;;;;12.10;9.75;;;;;;;;;;5051696;28;20291;-64
2023/05/28 01:11:15;;;;;;;12.52;9.27;;;;;;;;;;5053001;28;20381;-64
2023/05/28 01:13:42;;;;;;;14.35;10.05;;;;;;;;;;5053112;28;20393;-65
2023/05/28 01:16:09;;;;;;;13.50;10.30;;;;;;;;;;5052905;28;20634;-65
2023/05/28 01:18:39;;;;;;;13.47;10.10;;;;;;;;;;5052769;28;20057;-64
2023/05/28 01:21:06;;;;;;;13.57;10.23;;;;;;;;;;5052887;28;20650;-65
2023/05/28 01:23:43;;;;;;;14.37;9.93;;;;;;;;;;5052693;28;20516;-65
2023/05/28 01:26:13;;;;;;;14.30;10.25;;;;;;;;;;5052577;28;20488;-64
2023/05/28 01:28:44;;;;;;;16.25;11.13;;;;;;;;;;5052658;28;20049;-64
2023/05/28 01:31:11;;;;;;;12.68;9.60;;;;;;;;;;5052705;28;20041;-65
2023/05/28 01:33:38;;;;;;;14.07;10.43;;;;;;;;;;5052897;28;20127;-64
2023/05/28 01:36:07;;;;;;;13.57;9.82;;;;;;;;;;5051473;28;20467;-65
2023/05/28 01:38:35;;;;;;;14.60;9.60;;;;;;;;;;5052727;28;20122;-65
2023/05/28 01:41:02;;;;;;;12.02;9.18;;;;;;;;;;5052536;28;20079;-65
2023/05/28 01:43:28;;;;;;;13.27;9.50;;;;;;;;;;5052715;28;20091;-64
2023/05/28 01:45:55;;;;;;;15.60;8.90;;;;;;;;;;5052052;28;20371;-64
2023/05/28 01:48:21;;;;;;;12.77;9.43;;;;;;;;;;5052256;28;20094;-65
2023/05/28 01:50:48;;;;;;;11.40;9.57;;;;;;;;;;5052161;28;20041;-65
2023/05/28 01:53:14;;;;;;;10.48;9.32;;;;;;;;;;5052122;28;20041;-65
2023/05/28 01:55:41;;;;;;;11.30;9.18;;;;;;;;;;5052272;28;20053;-64
2023/05/28 01:58:08;;;;;;;9.95;8.85;;;;;;;;;;5050242;28;20049;-64
2023/05/28 02:00:35;;;;;;;12.00;9.93;;;;;;;;;;5040046;28;20045;-64
2023/05/28 02:03:04;;;;;;;13.25;9.52;;;;;;;;;;5051995;28;20094;-64
2023/05/28 02:05:30;;;;;;;11.38;9.45;;;;;;;;;;5052205;28;20123;-64
2023/05/28 02:07:58;;;;;;;11.90;8.77;;;;;;;;;;5052078;28;20080;-64
2023/05/28 02:10:24;;;;;;;;;;;;;;;;;;5052495;28;20086;-64
2023/05/28 02:12:51;;;;;;;11.98;9.02;;;;;;;;;;5051887;28;19925;-65
2023/05/28 02:15:19;;;;;;;12.95;9.57;;;;;;;;;;5051857;28;20048;-65
2023/05/28 02:17:46;;;;;;;12.07;9.05;;;;;;;;;;5051963;28;20118;-64
2023/05/28 02:20:12;;;;;;;10.50;8.68;;;;;;;;;;5051956;28;20128;-65
2023/05/28 02:22:39;;;;;;;12.85;8.70;;;;;;;;;;5051900;28;20554;-64
2023/05/28 02:25:06;;;;;;;14.40;9.63;;;;;;;;;;5051992;28;20053;-64
2023/05/28 02:27:32;;;;;;;12.57;9.40;;;;;;;;;;5051567;28;20041;-65
2023/05/28 02:29:59;;;;;;;12.43;9.25;;;;;;;;;;5051764;28;20072;-64
2023/05/28 02:32:25;;;;;;;10.60;8.82;;;;;;;;;;5044966;28;20076;-64
2023/05/28 02:34:54;;;;;;;11.05;8.98;;;;;;;;;;5050242;28;20055;-65
2023/05/28 02:37:23;;;;;;;11.88;9.15;;;;;;;;;;5051521;28;20488;-64
2023/05/28 02:39:50;;;;;;;11.35;9.00;;;;;;;;;;5052049;28;20048;-65
2023/05/28 02:42:17;;;;;;;11.43;8.57;;;;;;;;;;5050626;28;20049;-65
2023/05/28 02:44:43;;;;;;;11.02;8.80;;;;;;;;;;5051701;28;20432;-65
2023/05/28 02:47:10;;;;;;;11.80;8.52;;;;;;;;;;5051363;28;20052;-65
2023/05/28 02:49:36;;;;;;;10.43;8.77;;;;;;;;;;5051573;28;20111;-65
2023/05/28 02:52:03;;;;;;;11.95;9.00;;;;;;;;;;5051471;28;20530;-64
2023/05/28 02:54:29;;;;;;;12.07;8.57;;;;;;;;;;5051576;28;20045;-65
2023/05/28 02:56:55;;;;;;;11.10;8.85;;;;;;;;;;5051365;28;20130;-65
2023/05/28 02:59:22;;;;;;;12.50;8.23;;;;;;;;;;5054253;28;20088;-64
2023/05/28 03:01:48;;;;;;;11.73;8.10;;;;;;;;;;5055386;28;20049;-64
2023/05/28 03:04:15;;;;;;;11.05;8.10;;;;;;;;;;5055453;28;20056;-64
2023/05/28 03:06:41;;;;;;;10.85;8.40;;;;;;;;;;5055057;28;20044;-64
2023/05/28 03:09:08;;;;;;;11.57;8.57;;;;;;;;;;5055641;28;20398;-64
2023/05/28 03:11:34;;;;;;;10.10;8.40;;;;;;;;;;5055583;28;20381;-65
2023/05/28 03:14:00;;;;;;;10.68;7.13;;;;;;;;;;5055378;28;20080;-64
2023/05/28 03:16:27;;;;;;;11.10;8.13;;;;;;;;;;5055423;28;20080;-65
2023/05/28 03:18:53;;;;;;;9.82;7.47;;;;;;;;;;5055349;28;20053;-65
2023/05/28 03:21:20;;;;;;;9.25;7.93;;;;;;;;;;5055106;28;20569;-64
2023/05/28 03:23:46;;;;;;;11.02;7.80;;;;;;;;;;5055057;28;20126;-65
2023/05/28 03:26:13;;;;;;;11.52;8.07;;;;;;;;;;5054937;28;20102;-65
2023/05/28 03:28:39;;;;;;;10.38;7.82;;;;;;;;;;5055146;28;20084;-64
2023/05/28 03:31:06;;;;;;;12.00;7.68;;;;;;;;;;5055071;28;20106;-65
2023/05/28 03:33:32;;;;;;;8.45;7.38;;;;;;;;;;5054875;28;20560;-64
2023/05/28 03:35:59;;;;;;;10.13;7.53;;;;;;;;;;5054742;28;20053;-65
2023/05/28 03:38:25;;;;;;;8.00;6.78;;;;;;;;;;5054776;28;20570;-64
2023/05/28 03:40:52;;;;;;;10.30;7.32;;;;;;;;;;5054637;28;20044;-64
2023/05/28 03:43:18;;;;;;;10.75;7.13;;;;;;;;;;5054874;28;20044;-65
2023/05/28 03:45:45;;;;;;;10.30;7.22;;;;;;;;;;5054564;28;20052;-65
2023/05/28 03:48:11;;;;;;;9.82;7.20;;;;;;;;;;5054800;28;20386;-64
2023/05/28 03:50:38;;;;;;;12.27;7.22;;;;;;;;;;5054536;28;20045;-64
2023/05/28 03:53:05;;;;;;;10.57;6.85;;;;;;;;;;5054781;28;20041;-65
2023/05/28 03:55:32;;;;;;;;;;;;;;;;;;5054899;28;20041;-65
2023/05/28 03:57:58;;;;;;;9.73;6.60;;;;;;;;;;5054297;28;20265;-64
2023/05/28 04:00:25;;;;;;;8.27;6.53;;;;;;;;;;5054288;28;20056;-65
2023/05/28 04:02:51;;;;;;;7.97;6.70;;;;;;;;;;5054398;28;20062;-64
2023/05/28 04:05:18;;;;;;;8.38;6.57;;;;;;;;;;5054408;28;20049;-65
2023/05/28 04:07:45;;;;;;;9.23;6.63;;;;;;;;;;5054141;28;20045;-64
2023/05/28 04:10:11;;;;;;;8.25;6.18;;;;;;;;;;5053838;28;20488;-64
2023/05/28 04:12:37;;;;;;;8.20;6.03;;;;;;;;;;5054429;28;20055;-65
2023/05/28 04:15:04;;;;;;;8.73;6.35;;;;;;;;;;5054205;28;20071;-64
2023/05/28 04:17:31;;;;;;;7.32;5.97;;;;;;;;;;5054217;28;20110;-65
2023/05/28 04:19:58;;;;;;;9.57;5.78;;;;;;;;;;5054168;28;20056;-65
2023/05/28 04:22:24;;;;;;;8.35;5.55;;;;;;;;;;5053025;28;20053;-65
2023/05/28 04:24:55;;;;;;;6.82;4.90;;;;;;;;;;5053874;28;20075;-65
2023/05/28 04:27:21;;;;;;;5.60;4.50;;;;;;;;;;5052826;28;20049;-65
2023/05/28 04:29:48;;;;;;;6.78;4.78;;;;;;;;;;5053974;28;20081;-65
2023/05/28 04:32:14;;;;;;;6.32;4.88;;;;;;;;;;5053723;28;20488;-65
2023/05/28 04:34:41;;;;;;;8.48;4.75;;;;;;;;;;5053742;28;20052;-65
2023/05/28 04:37:07;;;;;;;7.55;4.75;;;;;;;;;;5053681;28;20547;-64
2023/05/28 04:39:34;;;;;;;5.97;4.32;;;;;;;;;;5053541;28;20049;-65
2023/05/28 04:42:03;;;;;;;5.60;4.45;;;;;;;;;;5053875;28;20049;-65
2023/05/28 04:44:30;;;;;;;5.00;4.50;;;;;;;;;;5053685;28;20045;-65
2023/05/28 04:46:58;;;;;;;5.82;4.43;;;;;;;;;;5053553;28;20057;-65
2023/05/28 04:49:25;;;;;;;6.63;4.28;;;;;;;;;;5053466;28;20048;-65
2023/05/28 04:51:52;;;;;;;5.28;4.45;;;;;;;;;;5053610;28;20272;-65
2023/05/28 04:54:18;;;;;;;6.38;4.53;;;;;;;;;;5053313;28;20484;-65
2023/05/28 04:56:45;;;;;;;5.10;4.28;;;;;;;;;;5053464;28;20044;-65
2023/05/28 04:59:12;;;;;;;5.72;4.55;;;;;;;;;;5053125;28;20519;-65
2023/05/28 05:01:41;;;;;;;4.82;3.70;;;;;;;;;;5053281;28;20053;-65
2023/05/28 05:04:08;;;;;;;4.85;4.07;;;;;;;;;;5053427;28;20060;-65
2023/05/28 05:06:35;;;;;;;5.80;4.28;;;;;;;;;;5052814;28;20497;-65
2023/05/28 05:09:03;;;;;;;7.22;4.35;;;;;;;;;;5053143;28;20424;-65
2023/05/28 05:11:30;;;;;;;;;;;;;;;;;;5053646;28;20045;-65
2023/05/28 05:13:57;;;;;;;4.47;3.90;;;;;;;;;;5053562;28;20013;-65
2023/05/28 05:16:24;;;;;;;4.88;3.92;;;;;;;;;;5053072;28;20048;-65
2023/05/28 05:18:50;;;;;;;5.55;4.13;;;;;;;;;;5052791;28;20567;-65
2023/05/28 05:21:17;;;;;;;5.90;4.22;;;;;;;;;;5052438;28;20084;-65
2023/05/28 05:23:43;;;;;;;4.95;4.05;;;;;;;;;;5053077;28;20116;-65
2023/05/28 05:26:12;;;;;;;4.47;3.90;;;;;;;;;;5052913;28;20118;-65
2023/05/28 05:28:39;;;;;;;5.30;4.07;;;;;;;;;;5052814;28;20081;-65
2023/05/28 05:31:05;;;;;;;5.87;3.77;;;;;;;;;;5052660;28;20500;-65
2023/05/28 05:33:32;;;;;;;5.15;3.65;;;;;;;;;;5052578;28;20071;-65
2023/05/28 05:35:58;;;;;;;5.38;4.07;;;;;;;;;;5052815;28;20064;-65
2023/05/28 05:38:25;;;;;;;7.30;4.13;;;;;;;;;;5052474;28;20103;-65
2023/05/28 05:40:51;;;;;;;4.35;3.67;;;;;;;;;;5052357;28;20546;-65
2023/05/28 05:43:18;;;;;;;6.25;4.35;;;;;;;;;;5052423;28;20492;-65
2023/05/28 05:45:44;;;;;;;7.90;4.40;;;;;;;;;;5052702;28;20056;-65
2023/05/28 05:48:11;;;;;;;5.18;3.83;;;;;;;;;;5052209;28;20052;-65
2023/05/28 05:50:50;;;;;;;5.18;4.03;;;;;;;;;;5052496;28;20044;-65
2023/05/28 05:53:17;;;;;;;6.70;4.18;;;;;;;;;;5051533;28;20036;-65
2023/05/28 05:55:43;;;;;;;7.20;4.27;;;;;;;;;;5052326;28;20114;-65
2023/05/28 05:58:10;;;;;;;5.45;4.05;;;;;;;;;;5052140;28;20308;-65
2023/05/28 06:00:37;;;;;;;5.38;3.97;;;;;;;;;;5052002;28;20406;-65
2023/05/28 06:03:03;;;;;;;6.82;4.50;;;;;;;;;;5051029;28;20049;-65
2023/05/28 06:05:31;;;;;;;5.22;3.95;;;;;;;;;;5052237;28;20059;-65
2023/05/28 06:07:57;;;;;;;;;;;;;;;;;;5052328;28;20136;-65
2023/05/28 06:10:24;;;;;;;5.50;3.60;;;;;;;;;;5052040;28;19970;-65
2023/05/28 06:12:51;;;;;;;6.28;4.57;;;;;;;;;;5051944;28;20450;-65
2023/05/28 06:15:17;;;;;;;6.57;4.22;;;;;;;;;;5051841;28;20049;-65
2023/05/28 06:17:44;;;;;;;5.45;4.60;;;;;;;;;;5051861;28;20052;-65
2023/05/28 06:20:11;;;;;;;5.80;4.05;;;;;;;;;;5052034;28;20064;-65
2023/05/28 06:22:37;;;;;;;5.97;4.32;;;;;;;;;;5051741;28;20060;-65
2023/05/28 06:25:04;;;;;;;6.57;4.03;;;;;;;;;;5051945;28;20049;-65
2023/05/28 06:27:31;;;;;;;6.07;4.05;;;;;;;;;;5051999;28;20181;-65
2023/05/28 06:29:58;;;;;;;5.53;3.97;;;;;;;;;;5051633;28;20095;-65
2023/05/28 06:32:24;;;;;;;4.30;3.70;;;;;;;;;;5050897;28;20484;-65
2023/05/28 06:34:51;;;;;;;5.65;4.28;;;;;;;;;;5051819;28;20041;-65
2023/05/28 06:37:17;;;;;;;7.95;3.80;;;;;;;;;;5051671;28;20048;-65
2023/05/28 06:39:43;;;;;;;6.80;4.28;;;;;;;;;;5051608;28;20053;-65
2023/05/28 06:42:10;;;;;;;6.80;4.22;;;;;;;;;;5051571;28;20084;-65
2023/05/28 06:44:36;;;;;;;6.35;3.88;;;;;;;;;;5051336;28;20503;-65
2023/05/28 06:47:03;;;;;;;6.20;3.65;;;;;;;;;;5051735;28;20134;-66
2023/05/28 06:49:30;;;;;;;5.60;4.07;;;;;;;;;;5050456;28;20049;-65
2023/05/28 06:51:56;;;;;;;4.10;3.43;;;;;;;;;;5051458;28;20056;-65
2023/05/28 06:54:22;;;;;;;4.45;3.45;;;;;;;;;;5051327;28;20575;-65
2023/05/28 06:56:49;;;;;;;5.63;3.80;;;;;;;;;;5051648;28;20073;-65
2023/05/28 06:59:15;;;;;;;5.27;4.00;;;;;;;;;;5051245;28;20110;-65
2023/05/28 07:01:42;;;;;;;5.97;3.85;;;;;;;;;;5051310;28;20575;-65
2023/05/28 07:04:08;;;;;;;4.95;3.63;;;;;;;;;;5051373;28;20069;-65
2023/05/28 07:06:35;;;;;;;6.93;3.60;;;;;;;;;;5051456;28;20053;-65
2023/05/28 07:09:02;;;;;;;6.75;3.83;;;;;;;;;;5051474;28;20094;-65
2023/05/28 07:11:28;;;;;;;4.88;3.85;;;;;;;;;;5049930;28;20045;-65
2023/05/28 07:13:55;;;;;;;5.15;3.90;;;;;;;;;;5051499;28;20122;-65
2023/05/28 07:16:21;;;;;;;5.35;3.78;;;;;;;;;;5051446;28;20049;-65
2023/05/28 07:18:48;;;;;;;5.97;3.67;;;;;;;;;;5051144;28;20056;-66
2023/05/28 07:21:15;;;;;;;4.95;3.97;;;;;;;;;;5051447;28;20048;-65
2023/05/28 07:23:41;;;;;;;5.30;4.00;;;;;;;;;;5051113;28;20409;-65
2023/05/28 07:26:07;;;;;;;5.32;4.32;;;;;;;;;;5051327;28;20400;-65
2023/05/28 07:28:34;;;;;;;7.25;4.05;;;;;;;;;;5051183;28;20045;-65
2023/05/28 07:31:00;;;;;;;4.82;3.90;;;;;;;;;;5049837;28;20052;-66
2023/05/28 07:33:27;;;;;;;6.85;3.83;;;;;;;;;;5051098;28;20112;-66
2023/05/28 07:35:53;;;;;;;5.95;4.00;;;;;;;;;;5051318;28;20558;-65
2023/05/28 07:38:20;;;;;;;5.70;3.90;;;;;;;;;;5051131;28;20052;-65
2023/05/28 07:40:47;;;;;;;6.68;4.10;;;;;;;;;;5050846;28;20065;-66
2023/05/28 07:43:13;;;;;;;4.82;4.10;;;;;;;;;;5051178;28;20061;-66
2023/05/28 07:45:39;;;;;;;5.00;4.10;;;;;;;;;;5054502;28;20155;-65
2023/05/28 07:48:06;;;;;;;5.43;3.45;;;;;;;;;;5054821;28;20041;-66
2023/05/28 07:50:32;;;;;;;6.05;4.70;;;;;;;;;;5054731;28;20046;-66
2023/05/28 07:53:01;;;;;;;7.87;3.50;;;;;;;;;;5053551;28;20447;-66
2023/05/28 07:55:27;;;;;;;5.43;4.03;;;;;;;;;;5054463;28;20285;-66
2023/05/28 07:57:54;;;;;;;6.38;4.22;;;;;;;;;;5054706;28;20099;-66
2023/05/28 08:00:21;;;;;;;5.70;4.03;;;;;;;;;;5054327;28;20053;-66
2023/05/28 08:02:47;;;;;;;4.97;3.70;;;;;;;;;;5054319;28;20053;-66
2023/05/28 08:05:16;;;;;;;5.30;3.97;;;;;;;;;;5054562;28;20060;-66
2023/05/28 08:07:42;;;;;;;5.68;3.95;;;;;;;;;;5054526;28;20076;-66
2023/05/28 08:10:09;;;;;;;5.15;3.67;;;;;;;;;;5054204;28;20045;-66
2023/05/28 08:12:35;;;;;;;4.28;3.67;;;;;;;;;;5054546;28;20049;-66
2023/05/28 08:15:02;;;;;;;6.90;3.95;;;;;;;;;;5054051;28;20488;-66
2023/05/28 08:17:29;;;;;;;4.85;4.18;;;;;;;;;;5054388;28;20041;-66
2023/05/28 08:19:56;;;;;;;5.53;3.95;;;;;;;;;;5054558;28;20056;-66
2023/05/28 08:22:28;;;;;;;5.10;3.88;;;;;;;;;;5054547;28;20106;-66
2023/05/28 08:24:54;;;;;;;6.38;3.70;;;;;;;;;;5054252;28;20381;-66
2023/05/28 08:27:21;;;;;;;6.03;4.13;;;;;;;;;;5026263;28;20045;-66
2023/05/28 08:29:47;;;;;;;5.70;4.13;;;;;;;;;;5053831;28;20278;-66
2023/05/28 08:32:14;;;;;;;4.87;4.10;;;;;;;;;;5053810;28;20052;-66
2023/05/28 08:34:40;;;;;;;6.60;3.97;;;;;;;;;;5053777;28;20458;-66
2023/05/28 08:37:07;;;;;;;5.13;3.90;;;;;;;;;;5053915;28;20041;-66
2023/05/28 08:39:33;;;;;;;6.13;3.88;;;;;;;;;;5053938;28;20432;-66
2023/05/28 08:42:01;;;;;;;6.70;4.10;;;;;;;;;;5053637;28;20516;-66
2023/05/28 08:44:28;;;;;;;5.75;3.63;;;;;;;;;;5053760;28;20079;-66
2023/05/28 08:46:55;;;;;;;5.23;3.50;;;;;;;;;;5053505;28;20053;-66
2023/05/28 08:49:23;;;;;;;6.38;3.70;;;;;;;;;;5053333;28;20294;-66
2023/05/28 08:51:52;;;;;;;3.78;3.45;;;;;;;;;;5053645;28;20037;-66
2023/05/28 08:54:19;;;;;;;5.47;3.70;;;;;;;;;;5053357;28;20495;-66
2023/05/28 08:56:45;;;;;;;4.65;3.53;;;;;;;;;;5052252;28;20485;-66
2023/05/28 08:59:12;;;;;;;4.93;3.38;;;;;;;;;;5053406;28;20106;-66
2023/05/28 09:01:39;;;;;;;6.53;3.50;;;;;;;;;;5053211;28;20080;-66
2023/05/28 09:04:06;;;;;;;;;;;;;;;;;;5053919;28;20118;-66
2023/05/28 09:06:33;;;;;;;4.45;3.40;;;;;;;;;;5053364;28;19925;-66
2023/05/28 09:08:59;;;;;;;5.22;3.80;;;;;;;;;;5053343;28;20052;-66
2023/05/28 09:11:26;;;;;;;5.55;3.75;;;;;;;;;;5053154;28;20443;-66
2023/05/28 09:13:52;;;;;;;6.00;3.70;;;;;;;;;;5053043;28;20083;-66
2023/05/28 09:16:22;;;;;;;4.25;3.60;;;;;;;;;;5053027;28;20106;-66
2023/05/28 09:18:50;;;;;;;3.95;3.28;;;;;;;;;;5052861;28;20053;-66
2023/05/28 09:21:20;;;;;;;4.95;3.35;;;;;;;;;;5053057;28;20048;-66
2023/05/28 09:23:52;;;;;;;4.68;3.22;;;;;;;;;;5052897;28;20095;-67
2023/05/28 09:26:21;;;;;;;3.90;3.08;;;;;;;;;;5049375;28;20053;-66
2023/05/28 09:28:52;;;;;;;5.18;3.42;;;;;;;;;;5048071;28;20124;-66
2023/05/28 09:31:18;;;;;;;3.72;3.08;;;;;;;;;;5050499;28;20048;-66
2023/05/28 09:33:45;;;;;;;3.72;2.80;;;;;;;;;;5051560;28;20081;-67
2023/05/28 09:36:15;;;;;;;6.20;3.00;;;;;;;;;;5051242;28;20049;-66
2023/05/28 09:38:41;;;;;;;3.72;3.00;;;;;;;;;;5052423;28;20546;-66
2023/05/28 09:41:09;;;;;;;;;;;;;;;;;;5052938;28;20049;-66
2023/05/28 09:43:37;;;;;;;3.92;2.95;;;;;;;;;;5052644;28;19924;-66
2023/05/28 09:46:07;;;;;;;9.18;3.53;;;;;;;;;;5052570;28;20481;-66
2023/05/28 09:48:33;;;;;;;4.75;2.90;;;;;;;;;;5052511;28;20075;-67
2023/05/28 09:51:02;;;;;;;3.25;2.67;;;;;;;;;;5052432;28;20049;-67
2023/05/28 09:53:30;;;;;;;3.95;2.42;;;;;;;;;;5052370;28;20095;-66
2023/05/28 09:55:58;;;;;;;4.20;2.40;;;;;;;;;;5052414;28;20049;-67
2023/05/28 09:58:28;;;;;;;3.47;2.28;;;;;;;;;;5052453;28;20048;-67
2023/05/28 10:00:56;;;;;;;2.90;2.38;;;;;;;;;;5052102;28;20048;-67
2023/05/28 10:03:25;;;;;;;3.47;2.80;;;;;;;;;;5052041;28;20041;-67
2023/05/28 10:05:53;;;;;;;3.50;2.30;;;;;;;;;;5052064;28;20048;-67
2023/05/28 10:08:21;;;;;;;3.17;2.63;;;;;;;;;;5051955;28;20124;-67
2023/05/28 10:10:51;;;;;;;3.90;2.20;;;;;;;;;;5050708;28;20044;-67
2023/05/28 10:13:17;;;;;;;3.25;2.47;;;;;;;;;;5051939;28;20057;-67
2023/05/28 10:15:45;;;;;;;3.80;2.67;;;;;;;;;;5052075;28;20045;-67
2023/05/28 10:18:14;;;;;;;3.85;2.40;;;;;;;;;;5051833;28;20625;-67
2023/05/28 10:20:41;;;;;;;3.88;2.38;;;;;;;;;;5051794;28;20048;-67
2023/05/28 10:23:08;;;;;;;5.85;2.20;;;;;;;;;;5052037;28;20060;-67
2023/05/28 10:25:35;;;;;;;3.10;2.42;;;;;;;;;;5051903;28;20040;-67
2023/05/28 10:28:05;;;;;;;2.80;2.30;;;;;;;;;;5051641;28;20618;-67
2023/05/28 10:30:33;;;;;;;4.05;1.98;;;;;;;;;;5047486;28;20041;-66
2023/05/28 10:33:03;;;;;;;3.90;2.30;;;;;;;;;;5042333;28;20106;-67
2023/05/28 10:35:29;;;;;;;4.47;2.33;;;;;;;;;;5051468;28;20087;-67
2023/05/28 10:38:06;;;;;;;3.38;2.38;;;;;;;;;;5051852;28;20059;-67
2023/05/28 10:40:38;;;;;;;4.20;1.83;;;;;;;;;;5051533;28;20049;-67
2023/05/28 10:43:05;;;;;;;2.40;2.17;;;;;;;;;;5051759;28;20081;-67
2023/05/28 10:45:35;;;;;;;2.47;1.90;;;;;;;;;;5051489;28;20454;-67
2023/05/28 10:48:02;;;;;;;3.90;2.42;;;;;;;;;;5051358;28;20049;-67
2023/05/28 10:50:29;;;;;;;4.80;2.17;;;;;;;;;;5051701;28;20077;-67
2023/05/28 10:53:08;;;;;;;2.92;2.13;;;;;;;;;;5051344;28;20554;-67
2023/05/28 10:55:47;;;;;;;3.85;2.30;;;;;;;;;;5051692;28;20488;-67
2023/05/28 10:58:34;;;;;;;4.15;2.38;;;;;;;;;;5051461;28;20041;-67
2023/05/28 11:01:05;;;;;;;4.25;2.40;;;;;;;;;;5051240;28;20057;-67
2023/05/28 11:03:41;;;;;;;4.38;2.10;;;;;;;;;;5051623;28;20043;-67
2023/05/28 11:06:08;;;;;;;5.32;2.50;;;;;;;;;;5051359;28;20083;-67
2023/05/28 11:08:42;;;;;;;4.18;1.75;;;;;;;;;;5051339;28;20053;-67
2023/05/28 11:11:10;;;;;;;3.22;2.10;;;;;;;;;;5051310;28;20045;-67
2023/05/28 11:13:38;;;;;;;3.60;2.35;;;;;;;;;;5051506;28;20041;-67
2023/05/28 11:16:08;;;;;;;4.15;2.30;;;;;;;;;;5051252;28;20048;-67
2023/05/28 11:18:35;;;;;;;2.35;2.08;;;;;;;;;;5051225;28;20053;-67
2023/05/28 11:21:02;;;;;;;4.20;2.20;;;;;;;;;;5055186;28;20053;-67
2023/05/28 11:23:28;;;;;;;3.72;1.92;;;;;;;;;;5055089;28;20098;-67
2023/05/28 11:25:54;;;;;;;4.47;2.40;;;;;;;;;;5055282;28;20048;-67
2023/05/28 11:28:36;;;;;;;3.25;2.47;;;;;;;;;;5055092;28;20049;-67
2023/05/28 11:31:02;;;;;;;3.70;2.42;;;;;;;;;;5055299;28;20076;-67
2023/05/28 11:33:29;;;;;;;4.10;2.45;;;;;;;;;;5055127;28;20049;-67
2023/05/28 11:35:58;;;;;;;3.38;2.15;;;;;;;;;;5054868;28;20048;-67
2023/05/28 11:38:25;;;;;;;3.50;1.80;;;;;;;;;;5055133;28;20049;-68
2023/05/28 11:40:57;;;;;;;3.63;2.20;;;;;;;;;;5054827;28;20095;-68
2023/05/28 11:43:27;;;;;;;3.20;1.95;;;;;;;;;;5054707;28;20558;-67
2023/05/28 11:45:57;;;;;;;3.03;1.90;;;;;;;;;;5054729;28;20496;-68
2023/05/28 11:48:24;;;;;;;3.03;1.77;;;;;;;;;;5054569;28;20049;-68
2023/05/28 11:51:00;;;;;;;3.13;2.20;;;;;;;;;;5054545;28;20052;-68
2023/05/28 11:53:43;;;;;;;3.58;2.30;;;;;;;;;;5053363;28;20247;-67
2023/05/28 11:56:10;;;;;;;4.50;2.55;;;;;;;;;;5054481;28;20053;-68
2023/05/28 11:58:41;;;;;;;2.70;1.88;;;;;;;;;;5054461;28;20071;-67
2023/05/28 12:01:07;;;;;;;3.58;2.60;;;;;;;;;;5054407;28;20114;-67
2023/05/28 12:03:34;;;;;;;4.40;2.45;;;;;;;;;;5054630;28;20102;-67
2023/05/28 12:06:01;;;;;;;4.70;2.60;;;;;;;;;;5054261;28;20056;-67
2023/05/28 12:08:28;;;;;;;5.88;2.75;;;;;;;;;;5054269;28;20059;-67
2023/05/28 12:11:01;;;;;;;6.93;2.72;;;;;;;;;;5054423;28;20098;-67
2023/05/28 12:13:34;;;;;;;3.92;2.88;;;;;;;;;;5054434;28;20411;-67
2023/05/28 12:16:04;;;;;;;4.68;2.78;;;;;;;;;;5054491;28;20044;-67
2023/05/28 12:18:31;;;;;;;4.90;3.28;;;;;;;;;;5054022;28;20553;-67
2023/05/28 12:20:58;;;;;;;4.07;2.50;;;;;;;;;;5053983;28;20075;-67
2023/05/28 12:23:25;;;;;;;4.57;2.60;;;;;;;;;;5053952;28;20440;-67
2023/05/28 12:25:52;;;;;;;5.43;2.80;;;;;;;;;;5054248;28;20052;-67
2023/05/28 12:28:20;;;;;;;4.30;2.80;;;;;;;;;;5053913;28;20107;-67
2023/05/28 12:30:50;;;;;;;4.90;2.97;;;;;;;;;;5053933;28;20107;-67
2023/05/28 12:33:17;;;;;;;5.85;3.03;;;;;;;;;;5054175;28;20045;-66
2023/05/28 12:35:43;;;;;;;6.07;3.25;;;;;;;;;;5053801;28;20041;-66
2023/05/28 12:38:10;;;;;;;6.68;3.25;;;;;;;;;;5053729;28;20061;-66
2023/05/28 12:40:36;;;;;;;5.50;3.30;;;;;;;;;;5054128;28;20406;-66
2023/05/28 12:43:03;;;;;;;4.45;2.83;;;;;;;;;;5053862;28;20053;-66
2023/05/28 12:45:29;;;;;;;4.78;2.95;;;;;;;;;;5053763;28;20099;-66
2023/05/28 12:47:56;;;;;;;3.80;3.15;;;;;;;;;;5053462;28;20099;-67
2023/05/28 12:50:25;;;;;;;5.38;2.67;;;;;;;;;;5053708;28;20095;-66
2023/05/28 12:52:52;;;;;;;5.32;3.28;;;;;;;;;;5053381;28;20045;-67
2023/05/28 12:55:20;;;;;;;5.45;3.20;;;;;;;;;;5053622;28;20115;-67
2023/05/28 12:57:46;;;;;;;10.05;4.45;;;;;;;;;;5053512;28;20389;-67
2023/05/28 13:00:13;;;;;;;8.60;4.55;;;;;;;;;;5053138;28;20061;-66
2023/05/28 13:02:39;;;;;;;7.03;3.80;;;;;;;;;;5053462;28;20064;-66
2023/05/28 13:05:06;;;;;;;8.35;3.55;;;;;;;;;;5053101;28;20428;-67
2023/05/28 13:07:33;;;;;;;7.20;4.03;;;;;;;;;;5053280;28;20059;-66
2023/05/28 13:09:59;;;;;;;6.60;3.63;;;;;;;;;;5053012;28;20595;-66
2023/05/28 13:12:26;;;;;;;4.78;3.55;;;;;;;;;;5053147;28;20044;-66
2023/05/28 13:14:52;;;;;;;6.22;3.40;;;;;;;;;;5052924;28;20049;-66
2023/05/28 13:17:22;;;;;;;4.45;3.10;;;;;;;;;;5053256;28;20107;-66
2023/05/28 13:19:48;;;;;;;3.78;3.10;;;;;;;;;;5053214;28;20060;-66
2023/05/28 13:22:15;;;;;;;4.57;2.72;;;;;;;;;;5025079;28;20501;-66
2023/05/28 13:24:41;;;;;;;5.65;3.13;;;;;;;;;;5053107;28;20059;-66
2023/05/28 13:27:13;;;;;;;5.57;3.40;;;;;;;;;;5052974;28;20088;-66
2023/05/28 13:29:40;;;;;;;6.03;2.92;;;;;;;;;;5052769;28;20084;-66
2023/05/28 13:32:06;;;;;;;9.10;3.35;;;;;;;;;;5052849;28;20041;-66
2023/05/28 13:34:33;;;;;;;4.70;3.05;;;;;;;;;;5052945;28;20095;-66
2023/05/28 13:37:00;;;;;;;4.55;3.08;;;;;;;;;;5052434;28;20555;-66
2023/05/28 13:39:26;;;;;;;;;;;;;;;;;;5052903;28;20500;-66
2023/05/28 13:41:52;;;;;;;5.18;3.17;;;;;;;;;;5052373;28;20062;-66
2023/05/28 13:44:20;;;;;;;6.82;4.10;;;;;;;;;;5052395;28;20462;-66
2023/05/28 13:46:48;;;;;;;5.10;3.30;;;;;;;;;;5052580;28;20067;-66
2023/05/28 13:49:14;;;;;;;4.00;2.90;;;;;;;;;;5052335;28;20419;-66
2023/05/28 13:51:43;;;;;;;6.50;3.40;;;;;;;;;;5052582;28;20096;-66
2023/05/28 13:54:10;;;;;;;8.75;3.67;;;;;;;;;;5052521;28;20080;-66
2023/05/28 13:56:38;;;;;;;5.03;3.30;;;;;;;;;;5052331;28;20045;-66
2023/05/28 13:59:05;;;;;;;5.15;3.05;;;;;;;;;;5052061;28;20060;-66
2023/05/28 14:01:31;;;;;;;6.30;3.20;;;;;;;;;;5052157;28;20041;-66
2023/05/28 14:03:58;;;;;;;8.60;3.42;;;;;;;;;;5052701;28;20049;-66
2023/05/28 14:06:25;;;;;;;11.57;3.60;;;;;;;;;;5052251;28;20045;-66
2023/05/28 14:08:51;;;;;;;6.65;3.50;;;;;;;;;;5051993;28;20041;-66
2023/05/28 14:11:18;;;;;;;12.35;3.97;;;;;;;;;;5052302;28;20060;-66
2023/05/28 14:13:44;;;;;;;6.78;3.72;;;;;;;;;;5052074;28;20049;-66
2023/05/28 14:16:10;;;;;;;8.55;4.22;;;;;;;;;;5052497;28;20080;-66
2023/05/28 14:18:37;;;;;;;7.85;3.80;;;;;;;;;;5051856;28;20037;-66
2023/05/28 14:21:03;;;;;;;10.77;4.40;;;;;;;;;;5052160;28;20075;-66
2023/05/28 14:23:30;;;;;;;6.95;3.03;;;;;;;;;;5051784;28;20504;-66
2023/05/28 14:25:56;;;;;;;6.85;3.28;;;;;;;;;;5052148;28;20518;-66
2023/05/28 14:28:26;;;;;;;6.95;3.15;;;;;;;;;;5052054;28;20136;-66
2023/05/28 14:30:52;;;;;;;5.13;2.80;;;;;;;;;;5051931;28;20052;-66
2023/05/28 14:33:19;;;;;;;5.60;3.20;;;;;;;;;;5051663;28;20114;-66
2023/05/28 14:35:46;;;;;;;4.60;3.17;;;;;;;;;;5051590;28;20492;-66
2023/05/28 14:38:12;;;;;;;4.47;3.13;;;;;;;;;;5051837;28;20076;-66
2023/05/28 14:40:39;;;;;;;5.75;3.10;;;;;;;;;;5051522;28;20072;-66